Marlboro, NY (12542)

3:13 PM EDT on September 04, 2015 (GMT -0400)
MYC | | Change Station
CLOSE
Current Station
Personal Weather Station
Location: Marlboro, NY
Elevation: 194 ft
Nearby Weather Stations

Elev 194 ft 41.61 °N, 73.97 °W | Updated 10 minutes ago

Overcast
Overcast
82.8 °F
Feels Like 97 °F
N
0.0
Wind Variable Wind from NNE

Today
High -- | Low -- °F
--% Chance of Precip.
Yesterday
High -- | Low -- °F
Precip. -- in
6:24 AM 7:24 PM
Waning Gibbous, 57% visible
Pressure 30.11 in
Visibility 10.0 miles
Clouds Scattered Clouds 3500 ft
Mostly Cloudy 4500 ft
Heat Index 97 °F
Dew Point 82 °F
Humidity 98%
Rainfall 0.00 in
Snow Depth Not available.
UV 4 out of 12
Pollen 8.20 out of 12
Air Quality Not available.
Flu Activity Not available.
METAR KPOU 041853Z 25003KT 10SM SCT035 BKN045 28/18 A3012 RMK AO2 SLP194 T02780183
Pressure 30.11 in
Visibility 10.0 miles
Clouds Scattered Clouds 3500 ft
Mostly Cloudy 4500 ft
Heat Index 97 °F
Dew Point 82 °F
Humidity 98%
Rainfall 0.00 in
Snow Depth Not available.
UV 4 out of 12
Pollen 8.20 out of 12
Air Quality Not available.
Flu Activity Not available.
METAR KPOU 041853Z 25003KT 10SM SCT035 BKN045 28/18 A3012 RMK AO2 SLP194 T02780183

10-Day Weather Forecast

×

Almanac

Astronomy

Sep. 04, 2015 Rise Set
Actual Time
Civil Twilight
Nautical Twilight
Astronomical Twilight
Moon
Length of Visible Light
Length of Day
Tomorrow will be .
, % of the Moon is Illuminated

Today's Extremes

State Highs State Lows

Community

WunderPhotos

Upload Photos

1,852,271 photos uploaded!

WunderBlogs® & News

Nearby

Air Quality

  Air Quality AQ Index Pollutant
Not available.

Snow Depth

Station Depth Elevation

Earthquake Activity

City Distance Mag. Time & Date
Minimum magnitude displayed is 2.5.

Coastal Water Temperatures

Place Temperature

Stations

Nearby Weather Stations

Station Location Temp. Windchill Dew Point Humidity Wind Precip. Elev Updated Type